createdAt,value
2018-04-23T00:00:41.579Z,77.28
2018-04-23T00:01:51.588Z,77.28
2018-04-23T00:03:00.519Z,78.23
2018-04-23T00:04:10.532Z,78.13
2018-04-23T00:05:20.271Z,78.89
2018-04-23T00:06:30.009Z,80.13
2018-04-23T00:07:39.751Z,79.27
2018-04-23T00:08:49.750Z,78.99
2018-04-23T00:09:59.792Z,78.13
2018-04-23T00:11:09.799Z,77.75
2018-04-23T00:12:19.539Z,77.84
2018-04-23T00:13:29.272Z,78.23
2018-04-23T00:14:39.279Z,78.51
2018-04-23T00:15:49.015Z,78.99
2018-04-23T00:16:58.752Z,78.89
2018-04-23T00:18:08.764Z,78.61
2018-04-23T00:19:18.234Z,78.89
2018-04-23T00:20:27.989Z,78.42
2018-04-23T00:21:37.994Z,77.75
2018-04-23T00:22:47.735Z,77.28
2018-04-23T00:23:57.743Z,77.37
2018-04-23T00:25:07.741Z,76.99
2018-04-23T00:26:17.741Z,76.71
2018-04-23T00:27:27.211Z,76.71
2018-04-23T00:28:37.209Z,76.8
2018-04-23T00:29:47.212Z,76.9
2018-04-23T00:30:57.221Z,77.37
2018-04-23T00:32:06.690Z,77.84
2018-04-23T00:33:16.424Z,77.37
2018-04-23T00:34:26.431Z,77.56
2018-04-23T00:35:36.171Z,77.56
2018-04-23T00:36:46.179Z,78.13
2018-04-23T00:37:55.930Z,78.32
2018-04-23T00:39:05.943Z,78.03
2018-04-23T00:40:15.946Z,78.03
2018-04-23T00:41:25.954Z,77.47
2018-04-23T00:42:35.697Z,76.8
2018-04-23T00:43:45.436Z,76.8
2018-04-23T00:44:55.170Z,76.42
2018-04-23T00:46:04.914Z,76.23
2018-04-23T00:47:14.653Z,76.71
2018-04-23T00:48:24.389Z,76.99
2018-04-23T00:49:34.403Z,76.9
2018-04-23T00:50:44.459Z,76.99
2018-04-23T00:51:54.462Z,76.61
2018-04-23T00:53:03.930Z,76.61
2018-04-23T00:54:13.674Z,76.61
2018-04-23T00:55:23.682Z,77.28
2018-04-23T00:56:33.692Z,76.75
2018-04-23T00:57:43.436Z,76.93
2018-04-23T00:58:53.166Z,76.42
2018-04-23T01:00:02.907Z,76.65
2018-04-23T01:01:12.379Z,76.56
2018-04-23T01:02:21.854Z,77.22
2018-04-23T01:03:31.588Z,77.31
2018-04-23T01:04:41.322Z,77.6
2018-04-23T01:05:51.353Z,76.56
2018-04-23T01:07:01.091Z,77.03
2018-04-23T01:08:10.299Z,76.75
2018-04-23T01:09:20.303Z,76.9
2018-04-23T01:10:29.771Z,76.93
2018-04-23T01:11:39.506Z,77.09
2018-04-23T01:12:49.250Z,77.18
2018-04-23T01:13:59.244Z,77.47
2018-04-23T01:15:09.255Z,76.84
2018-04-23T01:16:19.264Z,76.84
2018-04-23T01:17:28.999Z,77.18
2018-04-23T01:18:39.008Z,77.18
2018-04-23T01:19:48.756Z,78.51
2018-04-23T01:20:58.755Z,77.94
2018-04-23T01:22:08.225Z,77.94
2018-04-23T01:23:18.241Z,77.75
2018-04-23T01:24:27.983Z,77.84
2018-04-23T01:25:37.993Z,78.42
2018-04-23T01:26:47.993Z,78.42
2018-04-23T01:27:58.008Z,78.23
2018-04-23T01:29:07.755Z,78.99
2018-04-23T01:30:17.766Z,79.17
2018-04-23T01:31:27.234Z,78.8
2018-04-23T01:32:37.232Z,78.8
2018-04-23T01:33:46.973Z,78.89
2018-04-23T01:34:56.439Z,79.08
2018-04-23T01:36:06.182Z,78.89
2018-04-23T01:37:16.186Z,79.17
2018-04-23T01:38:26.187Z,78.99
2018-04-23T01:39:36.206Z,79.84
2018-04-23T01:40:45.141Z,80.03
2018-04-23T01:41:54.889Z,80.51
2018-04-23T01:43:04.904Z,81.07
2018-04-23T01:44:14.645Z,80.69
2018-04-23T01:45:24.640Z,79.94
2018-04-23T01:46:34.646Z,80.32
2018-04-23T01:47:44.184Z,80.79
2018-04-23T01:48:53.920Z,80.51
2018-04-23T01:50:03.183Z,80.03
2018-04-23T01:51:12.928Z,80.51
2018-04-23T01:52:22.940Z,80.88
2018-04-23T01:53:32.411Z,80.79
2018-04-23T01:54:41.878Z,80.6
2018-04-23T01:55:51.877Z,80.41
2018-04-23T01:57:01.637Z,81.36
2018-04-23T01:58:11.379Z,81.26
2018-04-23T01:59:21.481Z,81.17
2018-04-23T02:00:31.216Z,80.88
2018-04-23T02:01:41.215Z,81.07
2018-04-23T02:02:50.703Z,81.07
2018-04-23T02:04:00.449Z,81.07
2018-04-23T02:05:10.184Z,81.26
2018-04-23T02:06:19.653Z,81.65
2018-04-23T02:07:29.688Z,82.4
2018-04-23T02:08:39.692Z,82.59
2018-04-23T02:09:49.696Z,81.26
2018-04-23T02:10:59.706Z,81.45
2018-04-23T02:12:08.915Z,80.79
2018-04-23T02:13:18.647Z,80.6
2018-04-23T02:14:28.382Z,80.22
2018-04-23T02:15:38.385Z,80.88
2018-04-23T02:16:48.380Z,80.88
2018-04-23T02:17:58.121Z,81.55
2018-04-23T02:19:07.601Z,81.36
2018-04-23T02:20:17.604Z,81.84
2018-04-23T02:21:27.346Z,82.03
2018-04-23T02:22:37.090Z,81.84
2018-04-23T02:23:46.839Z,81.74
2018-04-23T02:24:56.312Z,81.74
2018-04-23T02:26:06.063Z,81.26
2018-04-23T02:27:16.062Z,81.45
2018-04-23T02:28:26.091Z,81.17
2018-04-23T02:29:35.845Z,81.84
2018-04-23T02:30:45.859Z,81.45
2018-04-23T02:31:55.676Z,81.65
2018-04-23T02:33:05.173Z,82.12
2018-04-23T02:34:14.911Z,82.03
2018-04-23T02:35:24.658Z,82.5
2018-04-23T02:36:34.682Z,82.31
2018-04-23T02:37:44.422Z,82.5
2018-04-23T02:38:54.422Z,82.69
2018-04-23T02:40:03.620Z,82.69
2018-04-23T02:41:13.630Z,82.4
2018-04-23T02:42:23.108Z,82.5
2018-04-23T02:43:33.113Z,82.21
2018-04-23T02:44:42.581Z,82.31
2018-04-23T02:45:52.326Z,82.12
2018-04-23T02:47:02.346Z,82.12
2018-04-23T02:48:12.100Z,82.5
2018-04-23T02:49:22.136Z,82.31
2018-04-23T02:50:31.621Z,82.5
2018-04-23T02:51:41.636Z,82.78
2018-04-23T02:52:51.638Z,82.69
2018-04-23T02:54:01.672Z,82.69
2018-04-23T02:55:11.669Z,82.31
2018-04-23T02:56:21.682Z,82.31
2018-04-23T02:57:31.710Z,82.59
2018-04-23T02:58:41.716Z,82.31
2018-04-23T02:59:51.589Z,82.03
2018-04-23T03:03:33.930Z,83.07
2018-04-23T03:04:43.944Z,83.26
2018-04-23T03:05:53.788Z,82.88
2018-04-23T03:07:03.544Z,82.69
2018-04-23T03:08:13.553Z,81.93
2018-04-23T03:09:23.290Z,82.59
2018-04-23T03:10:33.032Z,83.45
2018-04-23T03:11:43.038Z,83.73
2018-04-23T03:12:53.049Z,83.83
2018-04-23T03:14:03.065Z,84.11
2018-04-23T03:15:13.073Z,84.68
2018-04-23T03:16:23.086Z,84.21
2018-04-23T03:17:32.565Z,84.11
2018-04-23T03:18:42.582Z,83.83
2018-04-23T03:19:52.324Z,84.11
2018-04-23T03:21:02.325Z,84.3
2018-04-23T03:22:12.063Z,83.64
2018-04-23T03:23:21.803Z,82.78
2018-04-23T03:24:31.803Z,82.69
2018-04-23T03:25:41.805Z,83.54
2018-04-23T03:26:51.820Z,84.11
2018-04-23T03:28:01.824Z,84.01
2018-04-23T03:29:11.570Z,84.01
2018-04-23T03:30:21.596Z,84.4
2018-04-23T03:31:31.336Z,85.16
2018-04-23T03:32:40.808Z,85.53
2018-04-23T03:33:50.540Z,84.3
2018-04-23T03:35:00.279Z,84.4
2018-04-23T03:36:09.744Z,84.3
2018-04-23T03:37:19.218Z,84.59
2018-04-23T03:38:28.685Z,84.87
2018-04-23T03:39:38.419Z,84.01
2018-04-23T03:40:47.883Z,84.49
2018-04-23T03:41:57.618Z,85.16
2018-04-23T03:43:07.354Z,84.87
2018-04-23T03:44:17.363Z,84.49
2018-04-23T03:45:27.556Z,84.49
2018-04-23T03:46:37.559Z,84.26
2018-04-23T03:47:47.039Z,84.68
2018-04-23T03:48:57.036Z,85.11
2018-04-23T03:50:06.771Z,85.25
2018-04-23T03:51:16.780Z,84.87
2018-04-23T03:52:26.245Z,85.35
2018-04-23T03:53:35.979Z,84.64
2018-04-23T03:54:45.718Z,84.87
2018-04-23T03:55:55.230Z,85.78
2018-04-23T03:57:04.977Z,86.35
2018-04-23T03:58:14.979Z,86.11
2018-04-23T03:59:24.444Z,86.07
2018-04-23T04:00:34.441Z,86.2
2018-04-23T04:01:44.437Z,86.11
2018-04-23T04:02:54.183Z,86.2
2018-04-23T04:04:03.921Z,86.11
2018-04-23T04:05:13.656Z,85.53
2018-04-23T04:06:23.660Z,86.11
2018-04-23T04:07:33.129Z,86.11
2018-04-23T04:08:42.866Z,85.63
2018-04-23T04:09:52.605Z,85.53
2018-04-23T04:11:02.610Z,85.35
2018-04-23T04:12:12.625Z,85.35
2018-04-23T04:13:22.627Z,84.87
2018-04-23T04:14:31.826Z,85.53
2018-04-23T04:15:41.831Z,85.53
2018-04-23T04:16:51.889Z,85.82
2018-04-23T04:18:02.069Z,85.53
2018-04-23T04:19:11.540Z,85.91
2018-04-23T04:20:21.274Z,86.77
2018-04-23T04:21:31.009Z,86.77
2018-04-23T04:22:41.026Z,86.11
2018-04-23T04:23:51.046Z,86.11
2018-04-23T04:24:59.977Z,85.63
2018-04-23T04:26:09.448Z,85.91
2018-04-23T04:27:19.458Z,85.53
2018-04-23T04:28:29.474Z,85.63
2018-04-23T04:29:39.481Z,85.72
2018-04-23T04:30:49.484Z,86.11
2018-04-23T04:31:59.222Z,85.82
2018-04-23T04:33:08.694Z,85.63
2018-04-23T04:34:18.695Z,86.3
2018-04-23T04:35:28.476Z,86.11
2018-04-23T04:36:38.945Z,85.91
2018-04-23T04:37:49.266Z,85.35
2018-04-23T04:38:59.000Z,85.82
2018-04-23T04:40:08.733Z,85.91
2018-04-23T04:41:18.205Z,85.91
2018-04-23T04:42:27.942Z,85.63
2018-04-23T04:43:37.409Z,86.2
2018-04-23T04:44:47.421Z,86.11
2018-04-23T04:45:57.427Z,86.3
2018-04-23T04:47:06.892Z,86.49
2018-04-23T04:48:16.892Z,86.58
2018-04-23T04:49:26.652Z,87.15
2018-04-23T04:50:36.117Z,86.39
2018-04-23T04:51:46.127Z,87.05
2018-04-23T04:52:55.860Z,86.96
2018-04-23T04:54:05.885Z,87.62
2018-04-23T04:55:15.888Z,87.53
2018-04-23T04:56:25.916Z,86.96
2018-04-23T04:57:35.920Z,87.34
2018-04-23T04:58:45.390Z,87.34
2018-04-23T04:59:55.397Z,87.34
2018-04-23T05:01:05.130Z,86.87
2018-04-23T05:02:14.615Z,86.82
2018-04-23T05:03:24.082Z,87.29
2018-04-23T05:04:33.818Z,86.68
2018-04-23T05:05:43.286Z,86.63
2018-04-23T05:06:53.096Z,86.82
2018-04-23T05:08:02.568Z,86.43
2018-04-23T05:09:12.571Z,86.05
2018-04-23T05:10:22.308Z,86.15
2018-04-23T05:11:32.319Z,86.15
2018-04-23T05:12:42.336Z,85.86
2018-04-23T05:13:52.348Z,86.05
2018-04-23T05:15:02.083Z,85.96
2018-04-23T05:16:11.820Z,85.68
2018-04-23T05:17:21.557Z,85.58
2018-04-23T05:18:31.575Z,85.58
2018-04-23T05:19:41.049Z,85.11
2018-04-23T05:20:51.055Z,85.01
2018-04-23T05:22:00.806Z,85.2
2018-04-23T05:23:10.284Z,85.11
2018-04-23T05:24:20.304Z,85.11
2018-04-23T05:25:30.317Z,85.3
2018-04-23T05:26:40.323Z,85.3
2018-04-23T05:27:50.335Z,85.11
2018-04-23T05:28:59.538Z,84.82
2018-04-23T05:30:09.403Z,84.63
2018-04-23T05:31:18.881Z,85.2
2018-04-23T05:32:28.620Z,85.3
2018-04-23T05:33:38.361Z,84.91
2018-04-23T05:34:48.092Z,84.63
2018-04-23T05:35:57.887Z,85.05
2018-04-23T05:37:07.641Z,84.86
2018-04-23T05:38:17.661Z,85.15
2018-04-23T05:39:26.595Z,85.15
2018-04-23T05:40:36.334Z,85.43
2018-04-23T05:41:45.807Z,84.48
2018-04-23T05:42:55.816Z,85.05
2018-04-23T05:44:05.305Z,84.77
2018-04-23T05:45:15.445Z,84.48
2018-04-23T05:46:24.915Z,84.77
2018-04-23T05:47:34.927Z,84.48
2018-04-23T05:48:44.670Z,84.39
2018-04-23T05:49:54.147Z,84.67
2018-04-23T05:51:04.163Z,84.1
2018-04-23T05:52:13.897Z,84.29
2018-04-23T05:53:23.896Z,84.39
2018-04-23T05:54:33.899Z,84.77
2018-04-23T05:55:43.642Z,84.86
2018-04-23T05:56:53.698Z,84.86
2018-04-23T05:58:03.218Z,84.95
2018-04-23T05:59:12.949Z,84.48
2018-04-23T06:00:22.960Z,84.58
2018-04-23T06:01:32.698Z,84.2
2018-04-23T06:02:42.442Z,84.39
2018-04-23T06:03:52.181Z,84.29
2018-04-23T06:05:01.649Z,84.2
2018-04-23T06:06:10.869Z,83.91
2018-04-23T06:07:20.335Z,84.2
2018-04-23T06:08:30.339Z,84.39
2018-04-23T06:09:39.817Z,84.2
2018-04-23T06:10:49.288Z,83.82
2018-04-23T06:11:58.777Z,83.34
2018-04-23T06:13:08.523Z,83.15
2018-04-23T06:14:18.036Z,83.62
2018-04-23T06:15:28.200Z,83.34
2018-04-23T06:16:38.207Z,83.72
2018-04-23T06:17:47.955Z,84.01
2018-04-23T06:18:57.688Z,83.53
2018-04-23T06:20:07.161Z,83.82
2018-04-23T06:21:16.940Z,83.44
2018-04-23T06:22:26.673Z,83.34
2018-04-23T06:23:36.422Z,83.72
2018-04-23T06:24:46.425Z,83.44
2018-04-23T06:25:56.432Z,84.48
2018-04-23T06:27:05.903Z,84.39
2018-04-23T06:28:16.049Z,83.91
2018-04-23T06:29:25.783Z,84.29
2018-04-23T06:30:35.521Z,84.58
2018-04-23T06:31:45.001Z,84.67
2018-04-23T06:32:55.010Z,83.82
2018-04-23T06:34:05.129Z,83.53
2018-04-23T06:35:15.201Z,83.82
2018-04-23T06:36:24.932Z,84.2
2018-04-23T06:37:34.945Z,83.82
2018-04-23T06:38:44.964Z,84.1
2018-04-23T06:39:54.700Z,83.62
2018-04-23T06:41:04.166Z,83.25
2018-04-23T06:42:13.097Z,83.53
2018-04-23T06:43:23.101Z,83.25
2018-04-23T06:44:32.833Z,82.87
2018-04-23T06:45:42.579Z,82.68
2018-04-23T06:46:52.320Z,82.87
2018-04-23T06:48:02.076Z,83.25
2018-04-23T06:49:12.077Z,82.1
2018-04-23T06:50:21.817Z,82.39
2018-04-23T06:51:31.552Z,82.15
2018-04-23T06:52:41.294Z,82.34
2018-04-23T06:53:50.764Z,82.15
2018-04-23T06:55:00.495Z,81.96
2018-04-23T06:56:09.961Z,81.86
2018-04-23T06:57:20.030Z,82.34
2018-04-23T06:58:30.045Z,81.77
2018-04-23T06:59:40.060Z,81.86
2018-04-23T07:00:49.808Z,81.29
2018-04-23T07:01:59.011Z,80.82
2018-04-23T07:03:08.463Z,81.29
2018-04-23T07:04:17.930Z,80.63
2018-04-23T07:05:27.668Z,80.53
2018-04-23T07:06:37.417Z,80.24
2018-04-23T07:07:47.157Z,80.44
2018-04-23T07:08:56.893Z,80.53
2018-04-23T07:10:06.894Z,79.96
2018-04-23T07:11:16.631Z,79.2
2018-04-23T07:12:26.640Z,79.58
2018-04-23T07:13:35.838Z,79.11
2018-04-23T07:14:45.845Z,79.96
2018-04-23T07:15:55.868Z,79.01
2018-04-23T07:17:05.088Z,79.2
2018-04-23T07:18:14.564Z,78.53
2018-04-23T07:19:24.330Z,78.57
2018-04-23T07:20:34.083Z,78.34
2018-04-23T07:21:43.834Z,78.29
2018-04-23T07:22:53.839Z,78.1
2018-04-23T07:24:03.867Z,78.29
2018-04-23T07:25:14.128Z,78.1
2018-04-23T07:26:23.871Z,78.29
2018-04-23T07:27:33.090Z,78.57
2018-04-23T07:28:43.094Z,78.38
2018-04-23T07:29:52.564Z,78
2018-04-23T07:31:01.769Z,77.91
2018-04-23T07:32:11.614Z,77.81
2018-04-23T07:33:21.631Z,78
2018-04-23T07:34:31.369Z,77.72
2018-04-23T07:35:40.849Z,78.1
2018-04-23T07:36:50.858Z,77.53
2018-04-23T07:38:00.623Z,77.81
2018-04-23T07:39:10.626Z,77.53
2018-04-23T07:40:20.373Z,77.43
2018-04-23T07:41:30.121Z,77.81
2018-04-23T07:42:39.861Z,77.05
2018-04-23T07:43:49.864Z,76.76
2018-04-23T07:44:59.604Z,76.76
2018-04-23T07:46:09.345Z,76.76
2018-04-23T07:47:19.357Z,76.48
2018-04-23T07:48:28.558Z,76.96
2018-04-23T07:49:38.293Z,77.34
2018-04-23T07:50:48.030Z,77.05
2018-04-23T07:51:57.500Z,76.57
2018-04-23T07:53:06.977Z,76.57
2018-04-23T07:54:16.606Z,76.67
2018-04-23T07:55:26.416Z,77.05
2018-04-23T07:56:36.165Z,76.57
2018-04-23T07:57:46.182Z,76.67
2018-04-23T07:58:56.197Z,78.1
2018-04-23T08:00:06.205Z,78
2018-04-23T08:01:15.988Z,77.62
2018-04-23T08:02:26.011Z,77.43
2018-04-23T08:03:35.754Z,77.01
2018-04-23T08:04:45.233Z,77.05
2018-04-23T08:05:55.242Z,77.15
2018-04-23T08:07:04.729Z,76.76
2018-04-23T08:08:14.749Z,76.82
2018-04-23T08:09:24.751Z,76.92
2018-04-23T08:10:34.231Z,76.96
2018-04-23T08:11:44.241Z,76.63
2018-04-23T08:12:53.983Z,77.43
2018-04-23T08:14:03.458Z,77.24
2018-04-23T08:15:13.202Z,76.63
2018-04-23T08:16:23.296Z,77.49
2018-04-23T08:17:33.309Z,77.97
2018-04-23T08:18:43.324Z,78.06
2018-04-23T08:19:53.068Z,79.86
2018-04-23T08:21:03.072Z,80.3
2018-04-23T08:22:12.808Z,82.1
2018-04-23T08:23:22.551Z,82.49
2018-04-23T08:24:32.656Z,83.25
2018-04-23T08:25:42.402Z,84.16
2018-04-23T08:26:51.888Z,83.87
2018-04-23T08:28:01.638Z,84.16
2018-04-23T08:29:11.105Z,84.16
2018-04-23T08:30:21.218Z,83.49
2018-04-23T08:31:30.956Z,84.53
2018-04-23T08:32:40.694Z,85.01
2018-04-23T08:33:50.713Z,85.58
2018-04-23T08:35:00.723Z,85.68
2018-04-23T08:36:10.500Z,86.05
2018-04-23T08:37:20.509Z,86.15
2018-04-23T08:38:30.578Z,85.43
2018-04-23T08:39:40.320Z,84.82
2018-04-23T08:40:50.324Z,84.86
2018-04-23T08:42:00.327Z,85.86
2018-04-23T08:43:10.338Z,87.1
2018-04-23T08:44:20.076Z,87.1
2018-04-23T08:45:29.819Z,88.34
2018-04-23T08:46:39.295Z,89.19
2018-04-23T08:47:49.351Z,90.28
2018-04-23T08:48:59.178Z,91.42
2018-04-23T08:50:09.018Z,93.04
2018-04-23T08:51:19.021Z,93.32
2018-04-23T08:52:28.772Z,94.23
2018-04-23T08:53:38.780Z,94.32
2018-04-23T08:54:48.253Z,94.42
2018-04-23T08:55:57.994Z,93.08
2018-04-23T08:57:07.737Z,93.37
2018-04-23T08:58:17.743Z,93.08
2018-04-23T08:59:27.775Z,93.56
2018-04-23T09:00:37.772Z,94.23
2018-04-23T09:01:47.251Z,93.46
2018-04-23T09:02:57.262Z,93.37
2018-04-23T09:04:06.732Z,93.13
2018-04-23T09:05:16.751Z,93.6
2018-04-23T09:06:26.493Z,94.46
2018-04-23T09:07:36.231Z,94.74
2018-04-23T09:08:45.971Z,95.41
2018-04-23T09:09:55.993Z,95.41
2018-04-23T09:11:05.733Z,94.18
2018-04-23T09:12:15.469Z,94.18
2018-04-23T09:13:25.481Z,94.46
2018-04-23T09:14:35.492Z,93.8
2018-04-23T09:15:44.965Z,93.89
2018-04-23T09:16:54.974Z,93.04
2018-04-23T09:18:04.457Z,93.23
2018-04-23T09:19:14.201Z,93.04
2018-04-23T09:20:24.216Z,92.85
2018-04-23T09:21:33.949Z,92.47
2018-04-23T09:22:43.959Z,92.56
2018-04-23T09:23:54.015Z,92.75
2018-04-23T09:25:03.762Z,92.94
2018-04-23T09:26:13.503Z,93.51
2018-04-23T09:27:23.533Z,92.94
2018-04-23T09:28:33.369Z,92.37
2018-04-23T09:29:42.837Z,92.66
2018-04-23T09:30:52.589Z,93.6
2018-04-23T09:32:02.327Z,94.65
2018-04-23T09:33:12.334Z,94.65
2018-04-23T09:34:22.344Z,94.65
2018-04-23T09:35:32.096Z,94.93
2018-04-23T09:36:41.845Z,94.84
2018-04-23T09:37:51.314Z,95.41
2018-04-23T09:39:00.901Z,95.6
2018-04-23T09:40:10.638Z,95.65
2018-04-23T09:41:20.110Z,95.65
2018-04-23T09:42:30.128Z,95.65
2018-04-23T09:43:39.603Z,95.55
2018-04-23T09:44:49.076Z,95.55
2018-04-23T09:45:58.812Z,95.46
2018-04-23T09:47:08.550Z,94.98
2018-04-23T09:48:18.554Z,94.6
2018-04-23T09:49:28.309Z,94.51
2018-04-23T09:50:38.321Z,94.13
2018-04-23T09:51:48.331Z,93.6
2018-04-23T09:52:58.336Z,93.65
2018-04-23T09:54:07.277Z,93.84
2018-04-23T09:55:17.294Z,93.37
2018-04-23T09:56:27.306Z,93.46
2018-04-23T09:57:37.047Z,94.84
2018-04-23T09:58:46.788Z,94.93
2018-04-23T09:59:56.528Z,95.41
2018-04-23T10:01:06.537Z,95.51
2018-04-23T10:02:16.543Z,95.6
2018-04-23T10:03:26.279Z,94.84
2018-04-23T10:04:35.480Z,95.98
2018-04-23T10:05:44.950Z,95.98
2018-04-23T10:06:54.958Z,96.93
2018-04-23T10:08:04.693Z,96.83
2018-04-23T10:09:14.695Z,97.5
2018-04-23T10:10:24.701Z,97.5
2018-04-23T10:11:34.709Z,99.02
2018-04-23T10:12:44.713Z,99.11
2018-04-23T10:13:54.734Z,99.02
2018-04-23T10:15:04.477Z,99.87
2018-04-23T10:16:14.489Z,99.58
2018-04-23T10:17:24.492Z,99.99
2018-04-23T10:18:34.490Z,99.99
2018-04-23T10:19:44.230Z,99.99
2018-04-23T10:20:54.236Z,99.99
2018-04-23T10:22:03.817Z,99.99
2018-04-23T10:23:13.553Z,99.99
2018-04-23T10:24:23.037Z,99.99
2018-04-23T10:25:33.053Z,99.99
2018-04-23T10:26:42.533Z,99.99
2018-04-23T10:27:52.300Z,99.99
2018-04-23T10:29:02.354Z,99.99
2018-04-23T10:30:12.093Z,99.99
2018-04-23T10:31:22.139Z,99.99
2018-04-23T10:32:32.150Z,99.97
2018-04-23T10:33:41.882Z,99.99
2018-04-23T10:34:51.619Z,99.99
2018-04-23T10:36:01.362Z,99.68
2018-04-23T10:37:11.369Z,99.99
2018-04-23T10:38:21.126Z,99.49
2018-04-23T10:39:30.601Z,99.21
2018-04-23T10:40:40.075Z,99.21
2018-04-23T10:41:49.539Z,98.92
2018-04-23T10:42:59.285Z,98.73
2018-04-23T10:44:09.301Z,98.07
2018-04-23T10:45:19.312Z,98.26
2018-04-23T10:46:29.542Z,98.73
2018-04-23T10:47:39.020Z,98.92
2018-04-23T10:48:49.035Z,99.58
2018-04-23T10:49:58.499Z,99.58
2018-04-23T10:51:08.353Z,99.87
2018-04-23T10:52:18.175Z,99.99
2018-04-23T10:53:27.654Z,99.99
2018-04-23T10:54:37.667Z,99.99
2018-04-23T10:55:47.699Z,99.99
2018-04-23T10:56:57.435Z,99.99
2018-04-23T10:58:07.181Z,99.99
2018-04-23T10:59:17.185Z,99.99
2018-04-23T11:00:26.921Z,99.99
2018-04-23T11:01:36.935Z,99.99
2018-04-23T11:02:46.674Z,99.99
2018-04-23T11:03:56.678Z,99.99
2018-04-23T11:05:06.679Z,99.99
2018-04-23T11:06:16.691Z,99.99
2018-04-23T11:07:26.425Z,99.99
2018-04-23T11:08:36.427Z,99.99
2018-04-23T11:09:46.499Z,99.99
2018-04-23T11:10:56.516Z,99.99
2018-04-23T11:12:05.994Z,99.99
2018-04-23T11:13:15.786Z,99.99
2018-04-23T11:14:25.795Z,99.99
2018-04-23T11:15:35.537Z,99.99
2018-04-23T11:16:45.555Z,99.99
2018-04-23T11:17:55.039Z,99.99
2018-04-23T11:19:04.512Z,99.99
2018-04-23T11:20:14.517Z,99.99
2018-04-23T11:21:24.520Z,99.99
2018-04-23T11:22:34.522Z,99.99
2018-04-23T11:23:43.991Z,99.99
2018-04-23T11:24:54.037Z,99.99
2018-04-23T11:26:03.783Z,99.99
2018-04-23T11:27:13.527Z,99.99
2018-04-23T11:28:23.264Z,99.99
2018-04-23T11:29:33.263Z,99.99
2018-04-23T11:30:42.845Z,99.99
2018-04-23T11:31:52.590Z,99.99
2018-04-23T11:33:02.600Z,99.99
2018-04-23T11:34:12.072Z,99.99
2018-04-23T11:35:21.821Z,99.99
2018-04-23T11:36:31.844Z,99.99
2018-04-23T11:37:41.579Z,99.99
2018-04-23T11:38:51.166Z,99.99
2018-04-23T11:40:01.169Z,99.99
2018-04-23T11:41:10.639Z,99.99
2018-04-23T11:42:20.124Z,99.99
2018-04-23T11:43:30.139Z,99.99
2018-04-23T11:44:39.882Z,99.99
2018-04-23T11:45:49.904Z,99.99
2018-04-23T11:46:59.634Z,99.99
2018-04-23T11:48:09.405Z,99.99
2018-04-23T11:49:19.452Z,99.99
2018-04-23T11:50:29.195Z,99.99
2018-04-23T11:51:38.936Z,99.99
2018-04-23T11:52:48.945Z,99.99
2018-04-23T11:53:59.035Z,99.99
2018-04-23T11:55:08.238Z,99.99
2018-04-23T11:56:17.711Z,99.99
2018-04-23T11:57:27.715Z,99.99
2018-04-23T11:58:37.737Z,99.99
2018-04-23T11:59:47.479Z,99.99
2018-04-23T12:00:57.502Z,99.99
2018-04-23T12:02:07.243Z,99.99
2018-04-23T12:03:17.251Z,99.99
2018-04-23T12:04:27.300Z,99.99
2018-04-23T12:05:37.323Z,99.99
2018-04-23T12:06:46.810Z,99.99
2018-04-23T12:07:56.555Z,99.99
2018-04-23T12:09:06.288Z,99.99
2018-04-23T12:10:16.027Z,99.99
2018-04-23T12:11:25.764Z,99.99
2018-04-23T12:12:35.782Z,99.99
2018-04-23T12:13:45.778Z,99.99
2018-04-23T12:14:55.518Z,99.99
2018-04-23T12:16:05.286Z,99.99
2018-04-23T12:17:15.196Z,99.99
2018-04-23T12:18:25.204Z,99.99
2018-04-23T12:19:34.941Z,99.99
2018-04-23T12:20:44.412Z,99.99
2018-04-23T12:21:54.148Z,99.99
2018-04-23T12:23:03.987Z,99.99
2018-04-23T12:24:13.458Z,99.99
2018-04-23T12:25:23.468Z,99.99
2018-04-23T12:26:33.479Z,99.99
2018-04-23T12:27:43.229Z,99.99
2018-04-23T12:28:52.429Z,99.99
2018-04-23T12:30:02.436Z,99.99
2018-04-23T12:31:11.918Z,99.99
2018-04-23T12:32:21.704Z,99.99
2018-04-23T12:33:31.444Z,99.99
2018-04-23T12:34:41.186Z,99.99
2018-04-23T12:35:51.197Z,99.99
2018-04-23T12:37:00.407Z,99.99
2018-04-23T12:38:10.153Z,99.99
2018-04-23T12:39:20.165Z,99.99
2018-04-23T12:40:29.909Z,99.99
2018-04-23T12:41:39.934Z,99.99
2018-04-23T12:42:49.938Z,99.99
2018-04-23T12:43:59.683Z,99.99
2018-04-23T12:45:09.153Z,99.99
2018-04-23T12:46:18.800Z,99.99
2018-04-23T12:47:28.597Z,99.99
2018-04-23T12:48:38.605Z,99.99
2018-04-23T12:49:48.351Z,99.99
2018-04-23T12:50:57.606Z,99.99
2018-04-23T12:52:08.026Z,99.99
2018-04-23T12:53:17.771Z,99.99
2018-04-23T12:54:27.526Z,99.99
2018-04-23T12:55:37.273Z,99.99
2018-04-23T12:56:47.282Z,99.99
2018-04-23T12:57:56.757Z,99.99
2018-04-23T12:59:06.234Z,99.99
2018-04-23T13:00:15.979Z,99.99
2018-04-23T13:01:25.714Z,99.99
2018-04-23T13:02:35.466Z,99.99
2018-04-23T13:03:45.487Z,99.99
2018-04-23T13:04:55.500Z,99.99
2018-04-23T13:06:04.708Z,99.99
2018-04-23T13:07:14.717Z,99.99
2018-04-23T13:08:24.725Z,99.99
2018-04-23T13:09:34.516Z,99.99
2018-04-23T13:10:44.532Z,99.99
2018-04-23T13:11:54.279Z,99.99
2018-04-23T13:13:04.023Z,99.99
2018-04-23T13:14:13.777Z,99.99
2018-04-23T13:15:23.244Z,99.99
2018-04-23T13:16:33.259Z,99.99
2018-04-23T13:17:42.991Z,99.99
2018-04-23T13:18:52.734Z,99.99
2018-04-23T13:20:02.487Z,99.99
2018-04-23T13:21:12.264Z,99.99
2018-04-23T13:22:22.275Z,99.99
2018-04-23T13:23:32.286Z,99.99
2018-04-23T13:24:42.028Z,99.99
2018-04-23T13:25:51.236Z,99.99
2018-04-23T13:27:01.081Z,99.99
2018-04-23T13:28:11.096Z,99.99
2018-04-23T13:29:20.833Z,99.99
2018-04-23T13:30:30.619Z,99.99
2018-04-23T13:31:40.364Z,99.99
2018-04-23T13:32:50.374Z,99.99
2018-04-23T13:33:59.585Z,99.99
2018-04-23T13:35:09.593Z,99.99
2018-04-23T13:36:19.384Z,99.99
2018-04-23T13:37:29.394Z,99.99
2018-04-23T13:38:39.452Z,99.99
2018-04-23T13:39:49.524Z,99.99
2018-04-23T13:40:59.311Z,99.99
2018-04-23T13:42:08.800Z,99.99
2018-04-23T13:43:18.807Z,99.99
2018-04-23T13:44:28.555Z,99.99
2018-04-23T13:45:38.565Z,99.99
2018-04-23T13:46:48.577Z,99.99
2018-04-23T13:47:58.586Z,99.99
2018-04-23T13:49:08.062Z,99.99
2018-04-23T13:50:18.153Z,99.99
2018-04-23T13:51:27.634Z,99.99
2018-04-23T13:52:37.643Z,99.99
2018-04-23T13:53:47.659Z,99.99
2018-04-23T13:54:57.667Z,99.99
2018-04-23T13:56:07.151Z,99.99
2018-04-23T13:57:16.817Z,99.99
2018-04-23T13:58:26.831Z,99.99
2018-04-23T13:59:36.837Z,99.99
2018-04-23T14:00:46.578Z,99.99
2018-04-23T14:01:56.326Z,99.99
2018-04-23T14:03:06.062Z,99.99
2018-04-23T14:04:15.537Z,99.99
2018-04-23T14:05:25.285Z,99.99
2018-04-23T14:06:35.028Z,99.99
2018-04-23T14:07:45.038Z,99.99
2018-04-23T14:08:55.043Z,99.99
2018-04-23T14:10:04.787Z,99.99
2018-04-23T14:11:14.792Z,99.79
2018-04-23T14:12:24.550Z,98.88
2018-04-23T14:13:33.757Z,99.08
2018-04-23T14:14:43.496Z,98.79
2018-04-23T14:15:53.245Z,97.27
2018-04-23T14:17:03.253Z,96.31
2018-04-23T14:18:13.277Z,96.08
2018-04-23T14:19:23.024Z,95.89
2018-04-23T14:20:32.776Z,95.89
2018-04-23T14:21:42.792Z,96.27
2018-04-23T14:22:52.537Z,94.93
2018-04-23T14:24:02.036Z,94.17
2018-04-23T14:25:11.618Z,94.65
2018-04-23T14:26:21.357Z,93.51
2018-04-23T14:27:31.095Z,93.22
2018-04-23T14:28:41.101Z,93.32
2018-04-23T14:29:51.192Z,92.27
2018-04-23T14:31:01.063Z,92.32
2018-04-23T14:32:10.813Z,91.65
2018-04-23T14:33:20.825Z,91.46
2018-04-23T14:34:30.841Z,90.98
2018-04-23T14:35:40.582Z,91.46
2018-04-23T14:36:50.592Z,91.46
2018-04-23T14:38:00.327Z,90.79
2018-04-23T14:39:10.337Z,90.5
2018-04-23T14:40:20.351Z,90.6
2018-04-23T14:41:30.101Z,90.5
2018-04-23T14:42:40.112Z,90.12
2018-04-23T14:43:50.117Z,89.79
2018-04-23T14:45:00.187Z,89.22
2018-04-23T14:46:10.195Z,88.26
2018-04-23T14:47:20.207Z,88.21
2018-04-23T14:48:29.420Z,85.97
2018-04-23T14:49:39.169Z,83.43
2018-04-23T14:50:48.646Z,83
2018-04-23T14:51:58.663Z,81.18
2018-04-23T14:53:08.542Z,80.8
2018-04-23T14:54:18.364Z,80.46
2018-04-23T14:55:28.394Z,78.93
2018-04-23T14:56:38.405Z,79.31
2018-04-23T14:57:48.414Z,77.97
2018-04-23T14:58:58.429Z,76.73
2018-04-23T15:00:07.902Z,76.86
2018-04-23T15:01:17.381Z,76.42
2018-04-23T15:02:27.127Z,75.37
2018-04-23T15:03:37.134Z,73.82
2018-04-23T15:04:46.620Z,72.94